Time;durP1;ratioP1;P1;durP2;ratioP2;P2;SDS_P1;SDS_P2;PMS_P1;PMS_P2;Temp;Humidity;BMP_temperature;BMP_pressure;BME280_temperature;BME280_humidity;BME280_pressure;Samples;Min_cycle;Max_cycle;Signal;HPM_P1;HPM_P2
2024/03/19 00:01:19;;;;;;;27.02;9.38;;;;;;;;;;5031452;28;20044;-65
2024/03/19 00:03:45;;;;;;;23.30;8.90;;;;;;;;;;5032675;28;20064;-65
2024/03/19 00:06:11;;;;;;;26.95;9.50;;;;;;;;;;5031075;28;20136;-66
2024/03/19 00:08:36;;;;;;;33.05;9.95;;;;;;;;;;5032385;28;20510;-65
2024/03/19 00:11:02;;;;;;;24.95;9.95;;;;;;;;;;5032661;28;20033;-67
2024/03/19 00:13:28;;;;;;;28.35;8.95;;;;;;;;;;5032278;28;20041;-66
2024/03/19 00:15:53;;;;;;;37.67;10.40;;;;;;;;;;5031098;28;20530;-67
2024/03/19 00:18:19;;;;;;;31.13;9.65;;;;;;;;;;5032281;28;20713;-66
2024/03/19 00:20:45;;;;;;;23.05;9.52;;;;;;;;;;5031289;28;20046;-67
2024/03/19 00:23:10;;;;;;;27.50;10.55;;;;;;;;;;5032021;28;20084;-67
2024/03/19 00:25:36;;;;;;;27.08;10.38;;;;;;;;;;5030729;28;20434;-68
2024/03/19 00:28:03;;;;;;;22.42;9.73;;;;;;;;;;5032232;28;20036;-67
2024/03/19 00:30:29;;;;;;;27.38;11.65;;;;;;;;;;5030839;28;20446;-66
2024/03/19 00:32:55;;;;;;;24.55;9.18;;;;;;;;;;5031817;28;20407;-67
2024/03/19 00:35:21;;;;;;;29.05;10.00;;;;;;;;;;5031958;28;20451;-67
2024/03/19 00:37:49;;;;;;;31.73;10.35;;;;;;;;;;5031810;28;20072;-67
2024/03/19 00:40:15;;;;;;;25.00;9.25;;;;;;;;;;5030732;28;20509;-66
2024/03/19 00:42:43;;;;;;;24.90;8.88;;;;;;;;;;5030466;28;20100;-66
2024/03/19 00:45:09;;;;;;;27.73;10.18;;;;;;;;;;5030616;28;20053;-64
2024/03/19 00:47:35;;;;;;;33.28;10.73;;;;;;;;;;5030464;28;20040;-66
2024/03/19 00:50:00;;;;;;;26.13;10.73;;;;;;;;;;5031989;28;20064;-66
2024/03/19 00:52:26;;;;;;;31.23;10.23;;;;;;;;;;5031382;28;20079;-66
2024/03/19 00:54:52;;;;;;;34.67;10.07;;;;;;;;;;5031716;28;20037;-65
2024/03/19 00:57:17;;;;;;;26.17;9.80;;;;;;;;;;5030678;28;20123;-64
2024/03/19 00:59:44;;;;;;;36.83;10.23;;;;;;;;;;5027517;28;20046;-66
2024/03/19 01:02:10;;;;;;;26.17;9.90;;;;;;;;;;4990222;28;20088;-66
2024/03/19 01:04:36;;;;;;;25.58;10.32;;;;;;;;;;5030190;28;20526;-66
2024/03/19 01:07:02;;;;;;;25.45;9.73;;;;;;;;;;5030471;28;20041;-68
2024/03/19 01:09:27;;;;;;;23.52;8.88;;;;;;;;;;5031461;28;20149;-66
2024/03/19 01:11:54;;;;;;;25.67;10.25;;;;;;;;;;5030159;28;20045;-66
2024/03/19 01:14:20;;;;;;;31.77;10.60;;;;;;;;;;5029837;28;20041;-66
2024/03/19 01:16:46;;;;;;;30.65;9.77;;;;;;;;;;5030314;28;20052;-67
2024/03/19 01:19:11;;;;;;;27.23;9.98;;;;;;;;;;5031297;28;20371;-66
2024/03/19 01:21:37;;;;;;;25.45;10.02;;;;;;;;;;5031475;28;20048;-66
2024/03/19 01:24:03;;;;;;;28.08;9.15;;;;;;;;;;5031286;28;20487;-67
2024/03/19 01:26:28;;;;;;;22.73;9.70;;;;;;;;;;5031070;28;20040;-67
2024/03/19 01:28:54;;;;;;;25.98;9.70;;;;;;;;;;5029777;28;20072;-65
2024/03/19 01:31:19;;;;;;;33.03;10.32;;;;;;;;;;5031667;28;20060;-66
2024/03/19 01:33:45;;;;;;;26.73;10.13;;;;;;;;;;5013676;28;20045;-66
2024/03/19 01:36:10;;;;;;;20.27;8.80;;;;;;;;;;5031615;28;20033;-67
2024/03/19 01:38:37;;;;;;;20.27;8.98;;;;;;;;;;5031246;28;20075;-65
2024/03/19 01:41:04;;;;;;;25.35;9.70;;;;;;;;;;5030210;28;20048;-65
2024/03/19 01:43:29;;;;;;;20.60;8.75;;;;;;;;;;5030025;28;20059;-66
2024/03/19 01:46:07;;;;;;;27.38;9.52;;;;;;;;;;5031259;28;20511;-67
2024/03/19 01:48:33;;;;;;;26.42;10.10;;;;;;;;;;5031402;28;20037;-66
2024/03/19 01:50:59;;;;;;;22.10;9.65;;;;;;;;;;5030018;28;20064;-65
2024/03/19 01:53:25;;;;;;;22.65;9.25;;;;;;;;;;5013592;28;20549;-66
2024/03/19 01:55:51;;;;;;;23.17;8.95;;;;;;;;;;5031474;28;20057;-65
2024/03/19 01:58:16;;;;;;;25.40;9.82;;;;;;;;;;5031068;28;20044;-66
2024/03/19 02:00:42;;;;;;;28.10;10.52;;;;;;;;;;5031107;28;20510;-67
2024/03/19 02:03:07;;;;;;;29.77;10.75;;;;;;;;;;5030747;28;20388;-66
2024/03/19 02:05:33;;;;;;;22.27;8.95;;;;;;;;;;5031205;28;20529;-68
2024/03/19 02:07:59;;;;;;;26.05;9.05;;;;;;;;;;5031006;28;20076;-65
2024/03/19 02:10:25;;;;;;;21.95;9.77;;;;;;;;;;5029797;28;20407;-64
2024/03/19 02:12:51;;;;;;;31.42;10.68;;;;;;;;;;5010022;28;20030;-67
2024/03/19 02:15:16;;;;;;;28.08;9.75;;;;;;;;;;5011747;28;20049;-65
2024/03/19 02:17:42;;;;;;;31.13;11.43;;;;;;;;;;5011133;28;20111;-66
2024/03/19 02:20:12;;;;;;;23.63;10.23;;;;;;;;;;5010004;28;20033;-67
2024/03/19 02:22:46;;;;;;;31.45;10.77;;;;;;;;;;5011466;28;20088;-66
2024/03/19 02:25:12;;;;;;;23.27;9.90;;;;;;;;;;4994097;28;20057;-66
2024/03/19 02:27:38;;;;;;;25.85;10.07;;;;;;;;;;5013703;28;20120;-68
2024/03/19 02:30:05;;;;;;;28.15;10.63;;;;;;;;;;5015183;28;20132;-66
2024/03/19 02:32:31;;;;;;;28.90;9.43;;;;;;;;;;5015041;28;20328;-67
2024/03/19 02:34:56;;;;;;;29.38;11.07;;;;;;;;;;5015058;28;20034;-66
2024/03/19 02:37:22;;;;;;;24.58;11.15;;;;;;;;;;5025167;28;20043;-68
2024/03/19 02:39:47;;;;;;;30.58;10.93;;;;;;;;;;5034650;28;20038;-67
2024/03/19 02:42:13;;;;;;;26.65;10.40;;;;;;;;;;5034576;28;20487;-66
2024/03/19 02:44:39;;;;;;;23.08;11.52;;;;;;;;;;5034559;28;20042;-66
2024/03/19 02:47:05;;;;;;;21.02;9.93;;;;;;;;;;5034150;28;20049;-65
2024/03/19 02:49:31;;;;;;;24.50;10.55;;;;;;;;;;5032941;28;20042;-66
2024/03/19 02:51:56;;;;;;;23.58;10.23;;;;;;;;;;5032970;28;20064;-65
2024/03/19 02:54:22;;;;;;;25.70;10.02;;;;;;;;;;5033035;28;20033;-65
2024/03/19 02:56:47;;;;;;;27.58;11.05;;;;;;;;;;5034353;28;20136;-67
2024/03/19 02:59:13;;;;;;;23.65;10.15;;;;;;;;;;5016487;28;20081;-65
2024/03/19 03:01:38;;;;;;;26.42;11.45;;;;;;;;;;5034266;28;20034;-69
2024/03/19 03:04:04;;;;;;;24.98;11.45;;;;;;;;;;5032709;28;20041;-66
2024/03/19 03:06:30;;;;;;;28.60;10.77;;;;;;;;;;5033939;28;20053;-67
2024/03/19 03:08:56;;;;;;;26.70;10.82;;;;;;;;;;5016128;28;20041;-66
2024/03/19 03:11:21;;;;;;;26.27;11.70;;;;;;;;;;5005964;28;20045;-66
2024/03/19 03:13:47;;;;;;;27.35;11.32;;;;;;;;;;5014231;28;20484;-67
2024/03/19 03:16:13;;;;;;;28.15;10.38;;;;;;;;;;5029202;28;20411;-66
2024/03/19 03:18:39;;;;;;;27.95;11.10;;;;;;;;;;5013783;28;20096;-63
2024/03/19 03:21:05;;;;;;;27.02;11.80;;;;;;;;;;5029072;28;20048;-63
2024/03/19 03:23:30;;;;;;;25.00;11.20;;;;;;;;;;5013975;28;20042;-62
2024/03/19 03:25:56;;;;;;;28.10;12.00;;;;;;;;;;5028964;28;20049;-63
2024/03/19 03:28:22;;;;;;;31.80;10.93;;;;;;;;;;5013704;28;20124;-62
2024/03/19 03:30:47;;;;;;;37.83;12.55;;;;;;;;;;5013683;28;20057;-65
2024/03/19 03:33:13;;;;;;;30.15;11.95;;;;;;;;;;5028546;28;20551;-64
2024/03/19 03:35:39;;;;;;;27.27;10.68;;;;;;;;;;5013702;28;20693;-65
2024/03/19 03:38:07;;;;;;;27.38;13.05;;;;;;;;;;5013054;28;20483;-65
2024/03/19 03:40:33;;;;;;;25.67;10.73;;;;;;;;;;5013653;28;20063;-64
2024/03/19 03:42:59;;;;;;;21.85;10.73;;;;;;;;;;5012496;28;20116;-64
2024/03/19 03:45:27;;;;;;;29.20;12.10;;;;;;;;;;5013695;28;20042;-66
2024/03/19 03:47:52;;;;;;;23.38;10.73;;;;;;;;;;5013173;28;20514;-72
2024/03/19 03:50:18;;;;;;;24.48;10.90;;;;;;;;;;5031545;28;20061;-70
2024/03/19 03:52:43;;;;;;;29.40;11.57;;;;;;;;;;5041734;28;20065;-68
2024/03/19 03:55:10;;;;;;;30.08;11.32;;;;;;;;;;5031697;28;20553;-69
2024/03/19 03:57:37;;;;;;;28.70;10.77;;;;;;;;;;5015061;28;20353;-70
2024/03/19 04:00:08;;;;;;;28.30;11.45;;;;;;;;;;5032189;28;20406;-70
2024/03/19 04:02:37;;;;;;;30.58;11.60;;;;;;;;;;5031193;28;20030;-65
2024/03/19 04:05:03;;;;;;;32.00;11.45;;;;;;;;;;5032148;28;20064;-67
2024/03/19 04:07:29;;;;;;;21.88;10.57;;;;;;;;;;5032443;28;20540;-65
2024/03/19 04:09:55;;;;;;;31.75;11.98;;;;;;;;;;5030931;28;20037;-67
2024/03/19 04:12:21;;;;;;;28.30;11.43;;;;;;;;;;5013663;28;20411;-67
2024/03/19 04:14:46;;;;;;;30.70;12.27;;;;;;;;;;5032911;28;20520;-64
2024/03/19 04:17:12;;;;;;;28.40;11.77;;;;;;;;;;5031371;28;20546;-64
2024/03/19 04:19:38;;;;;;;30.02;11.25;;;;;;;;;;5031136;28;20045;-64
2024/03/19 04:22:04;;;;;;;32.80;12.27;;;;;;;;;;5030895;28;20509;-65
2024/03/19 04:24:29;;;;;;;34.85;13.00;;;;;;;;;;5031227;28;20114;-66
2024/03/19 04:26:55;;;;;;;26.90;10.85;;;;;;;;;;5032478;28;20038;-66
2024/03/19 04:29:21;;;;;;;28.77;11.93;;;;;;;;;;5032577;28;20044;-63
2024/03/19 04:31:46;;;;;;;27.75;11.32;;;;;;;;;;5032472;28;20556;-66
2024/03/19 04:34:12;;;;;;;31.10;11.57;;;;;;;;;;5031025;28;20494;-63
2024/03/19 04:36:38;;;;;;;25.98;11.32;;;;;;;;;;5031109;28;20098;-63
2024/03/19 04:39:10;;;;;;;25.15;12.02;;;;;;;;;;5032294;28;20041;-64
2024/03/19 04:41:38;;;;;;;35.40;12.00;;;;;;;;;;5032422;28;20052;-64
2024/03/19 04:44:03;;;;;;;27.33;12.05;;;;;;;;;;5031044;28;20056;-65
2024/03/19 04:46:29;;;;;;;27.33;11.50;;;;;;;;;;5030952;28;20045;-64
2024/03/19 04:48:54;;;;;;;28.85;12.25;;;;;;;;;;5031745;28;20402;-65
2024/03/19 04:51:20;;;;;;;29.00;11.27;;;;;;;;;;5031661;28;20076;-64
2024/03/19 04:53:46;;;;;;;34.13;13.10;;;;;;;;;;5031982;28;20038;-65
2024/03/19 04:56:12;;;;;;;38.13;12.88;;;;;;;;;;4997945;28;20029;-64
2024/03/19 04:58:40;;;;;;;25.27;10.57;;;;;;;;;;5032051;28;20044;-63
2024/03/19 05:01:06;;;;;;;22.80;11.63;;;;;;;;;;5030520;28;20033;-66
2024/03/19 05:03:31;;;;;;;32.00;12.18;;;;;;;;;;5031359;28;20510;-67
2024/03/19 05:05:59;;;;;;;28.65;11.35;;;;;;;;;;5031998;28;20037;-66
2024/03/19 05:08:25;;;;;;;33.40;11.95;;;;;;;;;;5031486;28;20038;-63
2024/03/19 05:10:50;;;;;;;27.38;11.98;;;;;;;;;;5031686;28;20136;-65
2024/03/19 05:13:16;;;;;;;36.67;12.20;;;;;;;;;;5031815;28;20040;-67
2024/03/19 05:15:41;;;;;;;40.70;11.75;;;;;;;;;;5031830;28;20091;-67
2024/03/19 05:18:08;;;;;;;30.13;11.55;;;;;;;;;;5031610;28;20491;-67
2024/03/19 05:20:34;;;;;;;26.65;11.98;;;;;;;;;;5031750;28;20061;-67
2024/03/19 05:23:00;;;;;;;34.60;12.75;;;;;;;;;;5031850;28;20059;-67
2024/03/19 05:25:26;;;;;;;38.15;12.18;;;;;;;;;;5030420;28;20617;-66
2024/03/19 05:27:52;;;;;;;34.33;12.55;;;;;;;;;;5031597;28;20120;-66
2024/03/19 05:30:19;;;;;;;33.50;12.07;;;;;;;;;;5031844;28;20129;-66
2024/03/19 05:32:44;;;;;;;30.05;12.63;;;;;;;;;;5031300;28;20087;-67
2024/03/19 05:35:10;;;;;;;39.70;12.77;;;;;;;;;;5031752;28;20049;-67
2024/03/19 05:37:36;;;;;;;30.08;11.85;;;;;;;;;;5031346;28;20039;-65
2024/03/19 05:40:06;;;;;;;28.42;11.15;;;;;;;;;;5031094;28;20491;-66
2024/03/19 05:42:32;;;;;;;39.03;12.77;;;;;;;;;;5029785;28;20117;-66
2024/03/19 05:44:58;;;;;;;32.75;12.27;;;;;;;;;;5031443;28;20105;-66
2024/03/19 05:47:24;;;;;;;42.22;12.23;;;;;;;;;;5031339;28;20033;-67
2024/03/19 05:49:52;;;;;;;27.10;11.18;;;;;;;;;;5031318;28;20099;-66
2024/03/19 05:52:19;;;;;;;28.77;10.90;;;;;;;;;;5031218;28;20061;-66
2024/03/19 05:54:44;;;;;;;28.50;11.60;;;;;;;;;;5030927;28;20041;-66
2024/03/19 05:57:10;;;;;;;29.48;11.73;;;;;;;;;;5031046;28;20046;-67
2024/03/19 05:59:36;;;;;;;31.58;11.80;;;;;;;;;;5029722;28;20048;-66
2024/03/19 06:02:05;;;;;;;31.92;12.45;;;;;;;;;;5034315;28;20037;-70
2024/03/19 06:04:32;;;;;;;30.15;13.25;;;;;;;;;;5033954;28;20041;-67
2024/03/19 06:06:57;;;;;;;24.65;11.75;;;;;;;;;;5034332;28;20535;-66
2024/03/19 06:09:23;;;;;;;28.20;11.90;;;;;;;;;;5034540;28;20124;-65
2024/03/19 06:11:49;;;;;;;31.27;12.50;;;;;;;;;;5033716;28;20147;-67
2024/03/19 06:14:14;;;;;;;33.17;11.80;;;;;;;;;;5032280;28;20049;-65
2024/03/19 06:16:40;;;;;;;27.65;12.13;;;;;;;;;;5033953;28;20041;-66
2024/03/19 06:19:06;;;;;;;35.75;12.57;;;;;;;;;;5032948;28;20606;-65
2024/03/19 06:21:32;;;;;;;31.75;12.02;;;;;;;;;;5033396;28;20434;-67
2024/03/19 06:23:59;;;;;;;29.85;11.27;;;;;;;;;;5033125;28;20486;-66
2024/03/19 06:26:25;;;;;;;29.63;12.65;;;;;;;;;;5034576;28;20047;-68
2024/03/19 06:28:50;;;;;;;41.40;21.10;;;;;;;;;;5032950;28;20309;-68
2024/03/19 06:31:17;;;;;;;39.75;12.40;;;;;;;;;;5066256;28;20037;-68
2024/03/19 06:33:43;;;;;;;27.63;11.52;;;;;;;;;;5034256;28;20068;-66
2024/03/19 06:36:10;;;;;;;30.33;11.57;;;;;;;;;;5033054;28;20034;-64
2024/03/19 06:38:35;;;;;;;32.33;12.05;;;;;;;;;;5034035;28;20075;-64
2024/03/19 06:41:01;;;;;;;33.58;13.25;;;;;;;;;;5032954;28;20076;-66
2024/03/19 06:43:28;;;;;;;30.15;10.88;;;;;;;;;;5016236;28;20128;-67
2024/03/19 06:45:53;;;;;;;28.40;11.88;;;;;;;;;;5016602;28;20137;-66
2024/03/19 06:48:19;;;;;;;33.25;12.27;;;;;;;;;;5033860;28;20075;-67
2024/03/19 06:50:45;;;;;;;29.45;12.43;;;;;;;;;;5034110;28;20116;-65
2024/03/19 06:53:11;;;;;;;26.60;11.20;;;;;;;;;;5033416;28;20057;-68
2024/03/19 06:55:37;;;;;;;30.20;11.57;;;;;;;;;;5033834;28;20034;-64
2024/03/19 06:58:03;;;;;;;27.10;11.10;;;;;;;;;;5032316;28;20120;-66
2024/03/19 07:00:28;;;;;;;23.98;10.40;;;;;;;;;;5033071;28;20502;-66
2024/03/19 07:02:55;;;;;;;28.75;10.55;;;;;;;;;;5033618;28;20487;-66
2024/03/19 07:05:22;;;;;;;27.27;11.05;;;;;;;;;;5033954;28;20052;-64
2024/03/19 07:07:47;;;;;;;34.08;11.15;;;;;;;;;;5032587;28;20112;-63
2024/03/19 07:10:13;;;;;;;20.58;9.70;;;;;;;;;;5032800;28;20383;-64
2024/03/19 07:12:39;;;;;;;20.92;9.35;;;;;;;;;;5033339;28;20032;-65
2024/03/19 07:15:10;;;;;;;29.08;11.55;;;;;;;;;;5033878;28;20056;-63
2024/03/19 07:17:40;;;;;;;25.92;10.65;;;;;;;;;;5033786;28;20025;-64
2024/03/19 07:20:12;;;;;;;22.40;9.85;;;;;;;;;;5032318;28;20147;-63
2024/03/19 07:22:38;;;;;;;24.08;11.40;;;;;;;;;;5015858;28;20037;-64
2024/03/19 07:25:07;;;;;;;26.08;10.38;;;;;;;;;;5033281;28;20068;-65
2024/03/19 07:27:37;;;;;;;27.83;10.30;;;;;;;;;;5033500;28;20047;-64
2024/03/19 07:30:07;;;;;;;20.17;10.10;;;;;;;;;;5031947;28;20087;-63
2024/03/19 07:32:32;;;;;;;22.15;10.38;;;;;;;;;;5033694;28;20029;-65
2024/03/19 07:34:58;;;;;;;26.00;11.13;;;;;;;;;;5031968;28;20052;-64
2024/03/19 07:37:24;;;;;;;22.17;10.02;;;;;;;;;;5033183;28;20040;-63
2024/03/19 07:39:53;;;;;;;23.73;10.90;;;;;;;;;;5031796;28;20063;-63
2024/03/19 07:42:19;;;;;;;22.52;10.20;;;;;;;;;;5031412;28;20457;-64
2024/03/19 07:44:45;;;;;;;22.30;9.52;;;;;;;;;;5031674;28;20054;-63
2024/03/19 07:47:11;;;;;;;23.38;9.10;;;;;;;;;;5014181;28;20607;-69
2024/03/19 07:49:36;;;;;;;21.08;9.43;;;;;;;;;;5030898;28;20148;-67
2024/03/19 07:52:04;;;;;;;20.23;9.73;;;;;;;;;;5030647;28;20053;-64
2024/03/19 07:54:30;;;;;;;20.27;10.65;;;;;;;;;;5030665;28;20037;-66
2024/03/19 07:56:56;;;;;;;22.95;10.55;;;;;;;;;;5065107;28;20083;-67
2024/03/19 07:59:22;;;;;;;21.60;9.95;;;;;;;;;;5032874;28;20045;-64
2024/03/19 08:01:51;;;;;;;27.40;10.25;;;;;;;;;;5033041;28;20030;-66
2024/03/19 08:04:18;;;;;;;22.60;10.45;;;;;;;;;;5032268;28;20052;-65
2024/03/19 08:06:44;;;;;;;23.35;10.55;;;;;;;;;;5032472;28;20046;-66
2024/03/19 08:09:10;;;;;;;22.52;9.68;;;;;;;;;;5032417;28;20167;-64
2024/03/19 08:11:36;;;;;;;25.27;9.90;;;;;;;;;;5032416;28;20483;-63
2024/03/19 08:14:02;;;;;;;21.95;9.68;;;;;;;;;;5031917;28;20042;-63
2024/03/19 08:16:30;;;;;;;28.90;11.13;;;;;;;;;;4998608;28;20044;-59
2024/03/19 08:18:59;;;;;;;20.20;9.23;;;;;;;;;;5032316;28;20049;-61
2024/03/19 08:21:25;;;;;;;24.05;10.10;;;;;;;;;;5032337;28;20044;-62
2024/03/19 08:23:51;;;;;;;22.80;10.18;;;;;;;;;;5031368;28;20041;-62
2024/03/19 08:26:17;;;;;;;21.73;10.82;;;;;;;;;;5030613;28;20102;-62
2024/03/19 08:28:46;;;;;;;26.88;9.38;;;;;;;;;;5031837;28;20049;-61
2024/03/19 08:31:12;;;;;;;25.65;10.18;;;;;;;;;;5032327;28;20033;-63
2024/03/19 08:33:38;;;;;;;22.27;11.02;;;;;;;;;;5032107;28;20044;-62
2024/03/19 08:36:07;;;;;;;23.60;10.23;;;;;;;;;;5032102;28;20037;-63
2024/03/19 08:38:33;;;;;;;24.20;10.18;;;;;;;;;;5030201;28;20061;-61
2024/03/19 08:40:59;;;;;;;27.67;9.75;;;;;;;;;;5032290;28;20079;-63
2024/03/19 08:43:25;;;;;;;25.73;9.88;;;;;;;;;;5014020;28;20120;-65
2024/03/19 08:45:51;;;;;;;27.58;10.70;;;;;;;;;;5030647;28;20582;-66
2024/03/19 08:48:16;;;;;;;28.67;10.98;;;;;;;;;;5031589;28;20502;-64
2024/03/19 08:50:42;;;;;;;29.17;11.43;;;;;;;;;;5031823;28;20079;-69
2024/03/19 08:53:07;;;;;;;26.58;11.48;;;;;;;;;;5032036;28;20160;-66
2024/03/19 08:55:36;;;;;;;24.73;11.50;;;;;;;;;;5030132;28;20494;-66
2024/03/19 08:58:04;;;;;;;26.45;13.90;;;;;;;;;;5031280;28;20116;-66
2024/03/19 09:00:30;;;;;;;21.02;10.82;;;;;;;;;;5031845;28;20084;-63
2024/03/19 09:02:59;;;;;;;24.27;10.68;;;;;;;;;;5031431;28;20053;-64
2024/03/19 09:05:25;;;;;;;23.83;10.77;;;;;;;;;;5030243;28;20038;-64
2024/03/19 09:07:51;;;;;;;27.88;10.32;;;;;;;;;;5031429;28;20037;-64
2024/03/19 09:10:17;;;;;;;24.00;9.65;;;;;;;;;;5030040;28;20295;-64
2024/03/19 09:12:44;;;;;;;24.00;9.65;;;;;;;;;;5031727;28;20049;-63
2024/03/19 09:15:11;;;;;;;24.10;9.43;;;;;;;;;;5030129;28;20080;-65
2024/03/19 09:17:40;;;;;;;16.52;8.55;;;;;;;;;;5031278;28;20033;-65
2024/03/19 09:20:06;;;;;;;31.27;10.07;;;;;;;;;;5031550;28;20048;-64
2024/03/19 09:22:32;;;;;;;21.60;8.90;;;;;;;;;;5031175;28;20048;-65
2024/03/19 09:24:58;;;;;;;18.05;9.07;;;;;;;;;;5031372;28;20127;-64
2024/03/19 09:27:24;;;;;;;27.95;10.00;;;;;;;;;;5031411;28;20053;-66
2024/03/19 09:29:51;;;;;;;19.77;9.25;;;;;;;;;;5031293;28;20037;-66
2024/03/19 09:32:16;;;;;;;18.27;8.55;;;;;;;;;;5031313;28;20111;-65
2024/03/19 09:34:43;;;;;;;19.80;8.10;;;;;;;;;;5031573;28;20064;-65
2024/03/19 09:37:09;;;;;;;17.35;8.55;;;;;;;;;;5032064;28;20034;-65
2024/03/19 09:39:34;;;;;;;16.70;8.75;;;;;;;;;;5031160;28;20042;-68
2024/03/19 09:42:00;;;;;;;18.58;9.05;;;;;;;;;;5030055;28;20040;-67
2024/03/19 09:44:26;;;;;;;16.13;8.93;;;;;;;;;;5031025;28;20114;-66
2024/03/19 09:46:52;;;;;;;14.20;8.20;;;;;;;;;;5031062;28;20061;-68
2024/03/19 09:49:18;;;;;;;16.63;8.23;;;;;;;;;;5030172;28;20037;-66
2024/03/19 09:51:44;;;;;;;15.60;8.48;;;;;;;;;;5031013;28;20056;-66
2024/03/19 09:54:11;;;;;;;19.27;9.38;;;;;;;;;;5031144;28;20097;-68
2024/03/19 09:56:37;;;;;;;18.13;9.10;;;;;;;;;;5031116;28;20103;-67
2024/03/19 09:59:03;;;;;;;16.95;8.68;;;;;;;;;;5031078;28;20496;-67
2024/03/19 10:01:29;;;;;;;17.85;8.90;;;;;;;;;;5013200;28;20053;-67
2024/03/19 10:03:55;;;;;;;14.32;7.50;;;;;;;;;;5030796;28;20042;-67
2024/03/19 10:06:21;;;;;;;17.42;8.93;;;;;;;;;;5031077;28;20462;-67
2024/03/19 10:08:46;;;;;;;16.67;7.95;;;;;;;;;;5029560;28;20030;-67
2024/03/19 10:11:13;;;;;;;13.68;7.95;;;;;;;;;;5030101;28;20041;-67
2024/03/19 10:13:39;;;;;;;12.00;8.05;;;;;;;;;;5030825;28;20041;-67
2024/03/19 10:16:05;;;;;;;13.68;8.10;;;;;;;;;;5029480;28;20029;-69
2024/03/19 10:18:30;;;;;;;15.65;9.20;;;;;;;;;;5029320;28;20052;-67
2024/03/19 10:20:57;;;;;;;15.75;8.52;;;;;;;;;;5031035;28;20471;-66
2024/03/19 10:23:23;;;;;;;17.55;9.57;;;;;;;;;;5030532;28;20507;-67
2024/03/19 10:25:52;;;;;;;13.05;8.02;;;;;;;;;;5030785;28;20053;-67
2024/03/19 10:28:18;;;;;;;14.50;8.77;;;;;;;;;;5030572;28;20037;-66
2024/03/19 10:30:47;;;;;;;13.32;7.93;;;;;;;;;;5030701;28;20026;-66
2024/03/19 10:33:13;;;;;;;15.60;7.72;;;;;;;;;;5030141;28;20499;-67
2024/03/19 10:35:41;;;;;;;14.63;7.80;;;;;;;;;;5029324;28;20044;-68
2024/03/19 10:38:08;;;;;;;10.52;7.10;;;;;;;;;;5030194;28;20041;-69
2024/03/19 10:40:34;;;;;;;15.02;7.70;;;;;;;;;;5029357;28;20124;-68
2024/03/19 10:43:00;;;;;;;11.38;7.45;;;;;;;;;;5030642;28;20121;-66
2024/03/19 10:45:30;;;;;;;13.38;7.97;;;;;;;;;;5029394;28;20072;-68
2024/03/19 10:47:56;;;;;;;9.73;6.82;;;;;;;;;;5031517;28;20033;-67
2024/03/19 10:50:22;;;;;;;15.27;8.40;;;;;;;;;;5034369;28;20050;-67
2024/03/19 10:53:17;;;;;;;13.85;6.88;;;;;;;;;;5033632;28;20058;-66
2024/03/19 10:55:43;;;;;;;10.00;7.05;;;;;;;;;;5024989;28;20045;-67
2024/03/19 10:58:11;;;;;;;15.57;7.38;;;;;;;;;;5032283;28;20495;-68
2024/03/19 11:00:43;;;;;;;13.98;7.60;;;;;;;;;;5016085;28;20122;-66
2024/03/19 11:03:13;;;;;;;12.63;8.18;;;;;;;;;;5033497;28;20034;-67
2024/03/19 11:05:40;;;;;;;15.13;8.13;;;;;;;;;;5033788;28;20049;-68
2024/03/19 11:08:09;;;;;;;13.90;8.18;;;;;;;;;;5032465;28;20116;-68
2024/03/19 11:10:36;;;;;;;17.52;8.25;;;;;;;;;;5033515;28;20038;-68
2024/03/19 11:13:04;;;;;;;12.00;7.40;;;;;;;;;;5033648;28;20079;-68
2024/03/19 11:15:30;;;;;;;14.18;8.57;;;;;;;;;;5032397;28;20045;-67
2024/03/19 11:17:57;;;;;;;16.20;9.10;;;;;;;;;;5032088;28;20120;-67
2024/03/19 11:20:28;;;;;;;10.82;6.65;;;;;;;;;;5032523;28;20450;-67
2024/03/19 11:22:54;;;;;;;13.05;7.45;;;;;;;;;;5032157;28;20463;-67
2024/03/19 11:25:20;;;;;;;11.70;7.30;;;;;;;;;;5032371;28;20487;-67
2024/03/19 11:27:46;;;;;;;12.35;7.18;;;;;;;;;;5033024;28;20048;-67
2024/03/19 11:30:13;;;;;;;12.73;7.57;;;;;;;;;;5032224;28;20038;-67
2024/03/19 11:32:40;;;;;;;11.85;7.45;;;;;;;;;;5032911;28;20098;-68
2024/03/19 11:35:18;;;;;;;10.52;7.05;;;;;;;;;;5032073;28;20034;-66
2024/03/19 11:37:51;;;;;;;13.40;6.47;;;;;;;;;;5032888;28;20048;-66
2024/03/19 11:40:18;;;;;;;11.35;6.70;;;;;;;;;;5033552;28;20037;-67
2024/03/19 11:42:44;;;;;;;13.60;7.03;;;;;;;;;;5032723;28;20505;-67
2024/03/19 11:45:13;;;;;;;12.65;7.13;;;;;;;;;;5033104;28;20124;-68
2024/03/19 11:47:39;;;;;;;13.50;7.13;;;;;;;;;;5032258;28;20029;-67
2024/03/19 11:50:05;;;;;;;10.38;6.75;;;;;;;;;;5032572;28;20479;-66
2024/03/19 11:52:34;;;;;;;10.45;7.88;;;;;;;;;;5032280;28;20056;-65
2024/03/19 11:55:00;;;;;;;13.70;7.88;;;;;;;;;;5033026;28;20046;-67
2024/03/19 11:57:26;;;;;;;14.05;7.80;;;;;;;;;;5032364;28;20022;-69
2024/03/19 11:59:52;;;;;;;14.25;7.90;;;;;;;;;;5033018;28;20049;-65
2024/03/19 12:02:17;;;;;;;12.82;7.28;;;;;;;;;;5031272;28;20079;-68
2024/03/19 12:04:45;;;;;;;14.50;7.28;;;;;;;;;;5032516;28;20051;-66
2024/03/19 12:07:11;;;;;;;12.10;7.38;;;;;;;;;;5032542;28;20076;-65
2024/03/19 12:09:37;;;;;;;13.43;7.72;;;;;;;;;;5031536;28;20034;-65
2024/03/19 12:12:02;;;;;;;13.93;7.72;;;;;;;;;;5032618;28;20075;-67
2024/03/19 12:14:29;;;;;;;13.77;7.75;;;;;;;;;;5031181;28;20120;-66
2024/03/19 12:16:55;;;;;;;13.55;7.53;;;;;;;;;;5032296;28;20402;-66
2024/03/19 12:19:21;;;;;;;15.30;8.85;;;;;;;;;;5031047;28;20046;-67
2024/03/19 12:21:48;;;;;;;15.75;8.23;;;;;;;;;;5030971;28;20075;-65
2024/03/19 12:24:15;;;;;;;14.48;9.07;;;;;;;;;;5032481;28;20088;-67
2024/03/19 12:26:44;;;;;;;16.42;9.95;;;;;;;;;;5032398;28;20561;-66
2024/03/19 12:29:14;;;;;;;20.45;10.27;;;;;;;;;;5032215;28;20037;-68
2024/03/19 12:31:48;;;;;;;14.48;9.43;;;;;;;;;;5032296;28;20120;-63
2024/03/19 12:34:48;;;;;;;18.73;9.30;;;;;;;;;;5032212;28;20121;-62
2024/03/19 12:37:15;;;;;;;15.07;8.13;;;;;;;;;;5032189;28;20116;-64
2024/03/19 12:39:41;;;;;;;14.63;8.57;;;;;;;;;;5032388;28;20415;-64
2024/03/19 12:42:10;;;;;;;14.85;8.25;;;;;;;;;;5032014;28;20036;-65
2024/03/19 12:44:39;;;;;;;13.27;8.77;;;;;;;;;;5032170;28;20037;-64
2024/03/19 12:47:09;;;;;;;14.55;9.18;;;;;;;;;;5030313;28;20380;-64
2024/03/19 12:49:36;;;;;;;16.25;9.15;;;;;;;;;;5032019;28;20116;-64
2024/03/19 12:52:03;;;;;;;14.20;8.60;;;;;;;;;;5031458;28;20053;-64
2024/03/19 12:54:29;;;;;;;22.35;9.52;;;;;;;;;;5031908;28;20037;-64
2024/03/19 12:56:54;;;;;;;17.15;8.65;;;;;;;;;;5031428;28;20410;-65
2024/03/19 12:59:20;;;;;;;13.20;8.65;;;;;;;;;;5031816;28;20049;-63
2024/03/19 13:01:45;;;;;;;17.55;8.90;;;;;;;;;;5031658;28;20064;-65
2024/03/19 13:04:11;;;;;;;15.68;8.73;;;;;;;;;;5031381;28;20479;-67
2024/03/19 13:06:37;;;;;;;21.52;9.38;;;;;;;;;;5031406;28;20426;-65
2024/03/19 13:09:04;;;;;;;18.95;9.18;;;;;;;;;;5031688;28;20065;-67
2024/03/19 13:11:30;;;;;;;16.95;8.77;;;;;;;;;;5046514;28;20534;-69
2024/03/19 13:13:56;;;;;;;15.13;8.90;;;;;;;;;;5029921;28;20211;-68
2024/03/19 13:16:21;;;;;;;17.60;9.68;;;;;;;;;;5031762;28;20132;-68
2024/03/19 13:18:47;;;;;;;15.98;9.05;;;;;;;;;;5010165;28;20479;-68
2024/03/19 13:21:13;;;;;;;21.27;10.55;;;;;;;;;;5011819;28;20061;-68
2024/03/19 13:23:39;;;;;;;23.30;10.55;;;;;;;;;;5024556;28;20041;-68
2024/03/19 13:26:05;;;;;;;19.67;10.20;;;;;;;;;;5031178;28;20137;-67
2024/03/19 13:28:31;;;;;;;16.90;9.38;;;;;;;;;;5031295;28;20125;-67
2024/03/19 13:30:57;;;;;;;22.23;9.93;;;;;;;;;;5013549;28;20040;-69
2024/03/19 13:33:23;;;;;;;20.63;9.80;;;;;;;;;;5030985;28;20052;-68
2024/03/19 13:35:49;;;;;;;20.73;10.43;;;;;;;;;;5031400;28;20475;-68
2024/03/19 13:38:15;;;;;;;23.35;10.07;;;;;;;;;;5031071;28;20060;-68
2024/03/19 13:40:41;;;;;;;20.10;10.57;;;;;;;;;;5063225;28;20090;-67
2024/03/19 13:43:07;;;;;;;23.30;9.00;;;;;;;;;;5062657;28;20041;-66
2024/03/19 13:45:33;;;;;;;20.90;10.50;;;;;;;;;;5029722;28;20507;-67
2024/03/19 13:47:58;;;;;;;20.85;9.20;;;;;;;;;;5031065;28;20032;-66
2024/03/19 13:50:24;;;;;;;18.95;9.18;;;;;;;;;;5031440;28;20061;-66
2024/03/19 13:52:50;;;;;;;19.35;8.85;;;;;;;;;;5030489;28;20088;-68
2024/03/19 13:55:16;;;;;;;17.10;8.75;;;;;;;;;;5028217;28;20062;-67
2024/03/19 13:57:42;;;;;;;17.15;9.75;;;;;;;;;;5027861;28;20139;-67
2024/03/19 14:00:14;;;;;;;26.92;10.60;;;;;;;;;;5029395;28;20033;-63
2024/03/19 14:02:40;;;;;;;20.70;9.10;;;;;;;;;;5020414;28;20029;-63
2024/03/19 14:05:08;;;;;;;25.02;9.90;;;;;;;;;;5029453;28;20033;-61
2024/03/19 14:07:35;;;;;;;20.30;11.35;;;;;;;;;;5026605;28;20503;-61
2024/03/19 14:10:04;;;;;;;28.73;13.25;;;;;;;;;;5030432;28;20589;-61
2024/03/19 14:12:31;;;;;;;17.05;9.45;;;;;;;;;;5023384;28;20077;-62
2024/03/19 14:14:56;;;;;;;18.90;10.35;;;;;;;;;;5030629;28;20095;-62
2024/03/19 14:17:22;;;;;;;20.23;10.95;;;;;;;;;;5036763;28;20026;-65
2024/03/19 14:19:48;;;;;;;21.70;9.77;;;;;;;;;;5029251;28;20132;-63